DW3648 Granada ES current weather conditions

sailwx.info

Wind from 113

Air temperature 18.3° C
Dewpoint 7.7° C

Last reported at 2020-May-31 06:45 UTC.
Time now 2020-May-31 08:12 UTC

Location: N 37°10' W 003°35'.
View on Google Maps.

See reports from other nearby stations

  
Tides and Currents Weather Stations Pressure Air Temp Water Temp Dewpoint Dewpoint Depression Visibility Wind Speed Wind Dir Waves Ship Positions
date/time (UTC)wind fromknots sea level pressurealtimeterstation pressurevisibilityair tempwater tempwave heightnotes
2020-May-31 06:45 113 18.3
2020-May-31 06:30 113 17.8
2020-May-31 06:15 112 17.2
2020-May-31 05:45 112 16.7
2020-May-31 05:30 112 16.1
2020-May-31 05:15 112 16.1
2020-May-31 04:45 112 16.1
2020-May-31 04:30 112 16.7
2020-May-31 04:15 112 0 gusting 2 16.7
2020-May-31 03:45 198 16.1
2020-May-31 03:30 167 16.1
2020-May-31 03:15 114 16.1
2020-May-31 02:46 114 15.6
2020-May-31 02:34 120 15.6
2020-May-31 02:16 121 0 gusting 3 15.6
2020-May-31 01:47 113 0 gusting 2 16.1
2020-May-31 01:31 111 16.1
2020-May-31 01:16 109 3 gusting 6 16.7
2020-May-31 00:46 103 1 gusting 2 16.7
2020-May-31 00:31 109 16.7
2020-May-31 00:16 060 2 gusting 6 17.2
2020-May-30 23:46 134 17.8
2020-May-30 23:31 105 3 gusting 6 18.3
2020-May-30 23:17 099 1 gusting 6 18.3
2020-May-30 22:45 106 2 gusting 4 20.0
2020-May-30 22:31 057 20.6
2020-May-30 22:15 061 21.1
2020-May-30 21:45 322 21.1
2020-May-30 21:30 289 0 gusting 4 21.7
2020-May-30 21:15 304 1 gusting 4 22.2
2020-May-30 20:46 268 0 gusting 4 22.8
2020-May-30 20:30 245 0 gusting 3 23.3
2020-May-30 20:15 245 0 gusting 3 23.3
2020-May-30 19:45 215 24.4
2020-May-30 19:31 271 25.0
2020-May-30 19:15 213 1 gusting 4 25.6
2020-May-30 18:45 226 0 gusting 6 26.1
2020-May-30 18:30 206 0 gusting 7 26.7
2020-May-30 18:15 169 2 gusting 7 27.2
2020-May-30 17:45 282 2 gusting 8 28.3
2020-May-30 17:30 177 3 gusting 10 28.9
2020-May-30 17:15 185 4 gusting 9 28.9
2020-May-30 16:45 165 4 gusting 9 29.4
2020-May-30 16:30 108 0 gusting 6 30.0
2020-May-30 16:15 223 1 gusting 9 28.9
2020-May-30 15:45 070 3 gusting 11 29.4
2020-May-30 15:30 192 3 gusting 10 30.0
2020-May-30 15:15 195 0 gusting 8 30.0
2020-May-30 14:45 237 3 gusting 11 29.4
2020-May-30 14:30 221 1 gusting 8 29.4
2020-May-30 14:15 194 1 gusting 10 29.4
2020-May-30 13:45 260 2 gusting 6 29.4
2020-May-30 13:30 184 3 gusting 7 29.4
2020-May-30 13:15 202 3 gusting 9 28.9
2020-May-30 12:45 291 2 gusting 8 28.3
2020-May-30 12:30 167 2 gusting 11 28.3
2020-May-30 12:15 232 2 gusting 10 28.3
2020-May-30 11:45 273 4 gusting 10 28.9
2020-May-30 11:30 297 27.8
2020-May-30 11:17 257 2 gusting 7 27.2
2020-May-30 11:01 234 0 gusting 6 27.2
2020-May-30 10:46 290 2 gusting 6 27.2
2020-May-30 10:31 262 0 gusting 5 26.7
2020-May-30 10:16 229 2 gusting 5 26.7
2020-May-30 10:01 288 0 gusting 5 25.6
2020-May-30 09:46 251 1 gusting 6 25.6
2020-May-30 09:31 237 0 gusting 5 25.0
2020-May-30 09:16 300 0 gusting 4 25.0
2020-May-30 09:01 267 24.4
2020-May-30 08:46 267 23.9
2020-May-30 08:31 267 23.9
2020-May-30 08:18 267 22.8
2020-May-30 08:00 267 22.2
2020-May-30 07:45 267 21.1
2020-May-30 07:30 269 20.6
2020-May-30 07:15 269 20.0
2020-May-30 07:01 261 19.4
2020-May-30 06:45 113 18.3
2020-May-30 06:30 113 17.2
2020-May-30 06:15 112 16.7
2020-May-30 05:45 113 0 gusting 2 15.6
2020-May-30 05:30 107 15.6
2020-May-30 05:15 093 1 gusting 3 15.6
2020-May-30 05:00 104 15.6
2020-May-30 04:46 118 1 gusting 3 16.1
2020-May-30 04:31 119 0 gusting 2 16.1
2020-May-30 04:15 117 0 gusting 3 16.1
2020-May-30 04:01 109 0 gusting 5 16.1
2020-May-30 03:45 101 16.1
2020-May-30 03:30 101 16.7
2020-May-30 03:15 101 0 gusting 5 16.1
2020-May-30 03:00 102 1 gusting 4 16.1
2020-May-30 02:45 115 1 gusting 3 16.7
2020-May-30 02:30 104 0 gusting 2 16.7
2020-May-30 02:15 116 1 gusting 4 16.7
2020-May-30 02:00 096 2 gusting 6 16.7
2020-May-30 01:45 095 2 gusting 6 17.2
2020-May-30 01:30 106 1 gusting 6 17.2
2020-May-30 01:15 119 2 gusting 4 18.3
2020-May-30 01:02 324 18.3
2020-May-30 00:47 324 18.9
2020-May-30 00:31 324 18.9
2020-May-30 00:16 323 19.4
2020-May-30 00:01 323 19.4
2020-May-29 23:46 323 0 gusting 3 19.4
2020-May-29 23:31 318 2 gusting 8 20.0
2020-May-29 23:16 288 1 gusting 3 20.0
2020-May-29 23:01 107 0 gusting 5 20.0
2020-May-29 22:47 179 0 gusting 3 20.6
2020-May-29 22:31 289 20.6
2020-May-29 22:18 289 21.1
2020-May-29 22:01 289 21.1
2020-May-29 21:46 289 21.7
2020-May-29 21:30 289 0 gusting 5 22.2
2020-May-29 21:17 267 22.8
2020-May-29 21:00 267 23.3
2020-May-29 20:45 267 23.3
2020-May-29 20:31 267 23.9
2020-May-29 20:15 267 24.4
2020-May-29 20:01 267 24.4
2020-May-29 19:45 167 25.0
2020-May-29 19:31 114 0 gusting 2 25.6
2020-May-29 19:15 252 26.1
2020-May-29 19:01 212 0 gusting 3 26.7
2020-May-29 18:45 175 27.2
2020-May-29 18:31 227 0 gusting 6 28.3
2020-May-29 18:15 173 2 gusting 6 28.9
2020-May-29 18:00 188 2 gusting 6 29.4
2020-May-29 17:45 178 1 gusting 6 29.4
2020-May-29 17:31 166 2 gusting 8 29.4
2020-May-29 17:16 165 2 gusting 6 30.0
2020-May-29 17:02 244 1 gusting 6 30.6
2020-May-29 16:46 184 1 gusting 9 30.0
2020-May-29 16:30 242 2 gusting 6 30.6
2020-May-29 16:15 211 3 gusting 9 30.6
2020-May-29 16:01 162 3 gusting 12 30.6
2020-May-29 15:45 192 3 gusting 6 31.1
2020-May-29 15:32 195 1 gusting 6 31.1
2020-May-29 15:15 176 2 gusting 6 31.7
2020-May-29 15:01 225 2 gusting 7 31.1
2020-May-29 14:45 110 0 gusting 6 30.0
2020-May-29 14:30 011 0 gusting 5 30.6
2020-May-29 14:16 224 2 gusting 6 30.0
2020-May-29 14:00 336 1 gusting 7 30.0
2020-May-29 13:45 132 0 gusting 5 29.4
2020-May-29 13:30 257 0 gusting 7 29.4
2020-May-29 13:15 298 0 gusting 4 28.9
2020-May-29 13:00 203 0 gusting 5 28.9
2020-May-29 12:45 228 1 gusting 6 28.3
2020-May-29 12:31 106 1 gusting 5 27.8
2020-May-29 12:15 302 3 gusting 9 27.8
2020-May-29 12:00 197 2 gusting 6 27.8
2020-May-29 11:45 159 2 gusting 6 27.2
2020-May-29 11:30 209 1 gusting 5 27.2
2020-May-29 11:15 248 26.1
2020-May-29 11:02 277 0 gusting 4 26.1
2020-May-29 10:47 263 1 gusting 5 25.6
2020-May-29 10:31 308 0 gusting 6 25.0
2020-May-29 10:16 248 25.0
2020-May-29 10:01 306 1 gusting 3 23.9
2020-May-29 09:47 280 23.3
2020-May-29 09:31 248 0 gusting 5 23.3
2020-May-29 09:16 267 2 gusting 5 22.8
2020-May-29 09:01 288 0 gusting 4 21.7
2020-May-29 08:46 281 0 gusting 4 21.1
2020-May-29 08:31 264 0 gusting 4 21.1
2020-May-29 08:16 257 21.7
2020-May-29 08:01 299 21.1